createdAt,value
2018-07-04T00:01:09.509Z,11.03
2018-07-04T00:03:49.847Z,12.53
2018-07-04T00:06:30.189Z,14.10
2018-07-04T00:09:10.484Z,16.53
2018-07-04T00:11:51.508Z,21.93
2018-07-04T00:14:32.102Z,19.07
2018-07-04T00:17:12.421Z,16.70
2018-07-04T00:19:52.760Z,12.90
2018-07-04T00:22:33.167Z,16.03
2018-07-04T00:25:13.623Z,24.50
2018-07-04T00:27:53.874Z,16.27
2018-07-04T00:30:34.127Z,18.63
2018-07-04T00:33:14.603Z,17.63
2018-07-04T00:35:55.055Z,16.03
2018-07-04T00:38:36.425Z,14.03
2018-07-04T00:41:16.816Z,18.47
2018-07-04T00:43:57.163Z,16.27
2018-07-04T00:46:37.547Z,14.77
2018-07-04T00:49:17.843Z,16.27
2018-07-04T00:51:58.328Z,14.10
2018-07-04T00:54:38.884Z,16.43
2018-07-04T00:57:19.205Z,17.03
2018-07-04T00:59:59.720Z,17.70
2018-07-04T01:02:40.376Z,15.73
2018-07-04T01:05:20.788Z,18.27
2018-07-04T01:08:01.148Z,19.20
2018-07-04T01:10:41.585Z,17.23
2018-07-04T01:13:22.089Z,18.40
2018-07-04T01:16:02.584Z,16.53
2018-07-04T01:18:43.214Z,15.27
2018-07-04T01:21:23.675Z,20.00
2018-07-04T01:24:03.934Z,19.13
2018-07-04T01:26:44.187Z,20.33
2018-07-04T01:29:25.401Z,19.70
2018-07-04T01:32:06.091Z,20.33
2018-07-04T01:34:47.063Z,20.00
2018-07-04T01:37:27.370Z,17.50
2018-07-04T01:40:07.957Z,22.17
2018-07-04T01:42:48.431Z,17.53
2018-07-04T01:45:28.818Z,25.00
2018-07-04T01:48:09.195Z,20.67
2018-07-04T01:50:49.768Z,18.10
2018-07-04T01:53:30.136Z,18.33
2018-07-04T01:56:10.561Z,18.43
2018-07-04T01:58:50.954Z,18.97
2018-07-04T02:01:31.452Z,15.70
2018-07-04T02:04:11.846Z,16.07
2018-07-04T02:06:52.223Z,18.00
2018-07-04T02:09:32.548Z,13.20
2018-07-04T02:12:13.104Z,15.10
2018-07-04T02:14:53.404Z,13.30
2018-07-04T02:17:33.727Z,21.10
2018-07-04T02:20:14.148Z,14.97
2018-07-04T02:22:55.051Z,21.60
2018-07-04T02:25:35.591Z,19.87
2018-07-04T02:28:16.170Z,19.30
2018-07-04T02:30:56.617Z,17.27
2018-07-04T02:33:37.022Z,19.67
2018-07-04T02:36:17.303Z,21.03
2018-07-04T02:38:57.830Z,23.30
2018-07-04T02:41:32.204Z,19.27
2018-07-04T02:44:12.674Z,20.00
2018-07-04T02:46:52.995Z,23.70
2018-07-04T02:49:33.359Z,20.70
2018-07-04T02:52:13.920Z,22.87
2018-07-04T02:54:54.345Z,22.03
2018-07-04T02:57:34.837Z,20.17
2018-07-04T03:00:15.251Z,20.13
2018-07-04T03:02:55.538Z,17.93
2018-07-04T03:05:35.951Z,20.93
2018-07-04T03:08:16.184Z,20.13
2018-07-04T03:10:56.696Z,23.20
2018-07-04T03:13:37.041Z,19.83
2018-07-04T03:16:17.680Z,24.37
2018-07-04T03:18:58.093Z,24.07
2018-07-04T03:21:38.619Z,22.00
2018-07-04T03:24:19.080Z,21.10
2018-07-04T03:26:59.391Z,19.43
2018-07-04T03:29:39.632Z,19.53
2018-07-04T03:32:19.929Z,22.47
2018-07-04T03:35:01.165Z,21.13
2018-07-04T03:37:41.525Z,17.90
2018-07-04T03:40:22.127Z,19.37
2018-07-04T03:43:02.683Z,18.17
2018-07-04T03:45:43.177Z,18.47
2018-07-04T03:48:23.599Z,19.53
2018-07-04T03:51:03.824Z,15.73
2018-07-04T03:53:44.296Z,18.53
2018-07-04T03:56:24.643Z,16.30
2018-07-04T03:59:05.099Z,19.30
2018-07-04T04:01:45.698Z,20.57
2018-07-04T04:04:26.060Z,18.83
2018-07-04T04:07:06.560Z,19.27
2018-07-04T04:09:46.985Z,20.67
2018-07-04T04:12:27.358Z,20.10
2018-07-04T04:15:07.668Z,15.67
2018-07-04T04:17:48.131Z,15.40
2018-07-04T04:20:28.599Z,15.63
2018-07-04T04:23:08.949Z,14.77
2018-07-04T04:25:49.341Z,15.60
2018-07-04T04:28:29.779Z,16.07
2018-07-04T04:31:10.194Z,18.33
2018-07-04T04:33:50.784Z,15.43
2018-07-04T04:36:31.187Z,15.83
2018-07-04T04:39:11.521Z,15.83
2018-07-04T04:41:51.856Z,13.07
2018-07-04T04:44:32.363Z,13.73
2018-07-04T04:47:12.689Z,14.53
2018-07-04T04:49:53.509Z,13.60
2018-07-04T04:52:33.864Z,14.60
2018-07-04T04:55:14.578Z,13.43
2018-07-04T04:57:54.852Z,13.60
2018-07-04T05:00:29.365Z,14.13
2018-07-04T05:03:09.843Z,13.77
2018-07-04T05:05:50.320Z,15.67
2018-07-04T05:08:30.962Z,15.23
2018-07-04T05:11:11.470Z,13.23
2018-07-04T05:13:52.056Z,16.20
2018-07-04T05:16:32.548Z,14.03
2018-07-04T05:19:12.959Z,15.37
2018-07-04T05:21:54.200Z,13.57
2018-07-04T05:24:34.695Z,17.33
2018-07-04T05:27:14.953Z,13.57
2018-07-04T05:29:55.410Z,16.00
2018-07-04T05:32:36.051Z,16.20
2018-07-04T05:35:16.440Z,13.13
2018-07-04T05:37:56.938Z,13.10
2018-07-04T05:40:37.402Z,13.53
2018-07-04T05:43:18.143Z,15.13
2018-07-04T05:45:58.410Z,13.33
2018-07-04T05:48:38.785Z,15.23
2018-07-04T05:51:19.236Z,10.17
2018-07-04T05:53:59.583Z,15.13
2018-07-04T05:56:40.145Z,11.97
2018-07-04T05:59:20.569Z,12.13
2018-07-04T06:02:00.926Z,13.10
2018-07-04T06:04:41.370Z,12.60
2018-07-04T06:07:21.869Z,11.00
2018-07-04T06:10:02.232Z,14.47
2018-07-04T06:12:42.760Z,10.27
2018-07-04T06:15:23.058Z,8.67
2018-07-04T06:18:03.509Z,13.63
2018-07-04T06:20:43.950Z,8.30
2018-07-04T06:23:24.244Z,10.83
2018-07-04T06:26:04.696Z,10.63
2018-07-04T06:28:45.025Z,5.90
2018-07-04T06:31:25.535Z,7.60
2018-07-04T06:34:06.017Z,7.77
2018-07-04T06:36:46.394Z,7.57
2018-07-04T06:39:14.526Z,6.93
2018-07-04T06:41:42.481Z,6.27
2018-07-04T06:44:10.472Z,7.13
2018-07-04T06:46:38.459Z,6.43
2018-07-04T06:49:06.548Z,5.03
2018-07-04T06:51:34.527Z,4.90
2018-07-04T06:54:02.563Z,5.13
2018-07-04T06:56:30.552Z,3.90
2018-07-04T06:58:58.547Z,3.77
2018-07-04T07:01:26.568Z,5.37
2018-07-04T07:04:06.992Z,5.23
2018-07-04T07:06:47.437Z,4.50
2018-07-04T07:09:27.923Z,4.83
2018-07-04T07:12:10.203Z,7.77
2018-07-04T07:14:50.817Z,2.70
2018-07-04T07:17:31.172Z,4.10
2018-07-04T07:20:11.525Z,4.60
2018-07-04T07:22:52.081Z,5.67
2018-07-04T07:25:32.721Z,3.00
2018-07-04T07:28:13.105Z,4.90
2018-07-04T07:30:53.430Z,4.43
2018-07-04T07:33:33.925Z,2.90
2018-07-04T07:36:14.210Z,4.17
2018-07-04T07:38:54.905Z,4.00
2018-07-04T07:41:35.325Z,6.10
2018-07-04T07:44:16.216Z,6.50
2018-07-04T07:46:56.623Z,3.23
2018-07-04T07:49:37.262Z,4.67
2018-07-04T07:52:17.636Z,4.03
2018-07-04T07:54:58.070Z,2.77
2018-07-04T07:57:38.528Z,3.97
2018-07-04T08:00:19.009Z,2.40
2018-07-04T08:02:59.392Z,5.93
2018-07-04T08:05:39.783Z,3.50
2018-07-04T08:08:20.136Z,2.90
2018-07-04T08:11:00.483Z,4.37
2018-07-04T08:13:40.814Z,5.27
2018-07-04T08:16:21.083Z,5.83
2018-07-04T08:19:01.498Z,6.23
2018-07-04T08:21:41.842Z,4.40
2018-07-04T08:24:22.301Z,4.00
2018-07-04T08:27:02.715Z,5.37
2018-07-04T08:29:43.096Z,3.57
2018-07-04T08:32:23.600Z,3.43
2018-07-04T08:35:04.743Z,3.63
2018-07-04T08:37:45.445Z,4.57
2018-07-04T08:40:25.731Z,6.47
2018-07-04T08:43:06.276Z,5.80
2018-07-04T08:45:46.702Z,6.13
2018-07-04T08:48:27.154Z,4.20
2018-07-04T08:51:07.557Z,2.37
2018-07-04T08:53:48.063Z,4.27
2018-07-04T08:56:28.618Z,7.63
2018-07-04T08:59:09.030Z,5.47
2018-07-04T09:01:49.356Z,6.63
2018-07-04T09:04:29.733Z,4.70
2018-07-04T09:07:10.068Z,5.60
2018-07-04T09:09:50.434Z,7.13
2018-07-04T09:12:30.735Z,3.27
2018-07-04T09:15:11.104Z,3.90
2018-07-04T09:17:51.536Z,3.27
2018-07-04T09:20:31.951Z,5.00
2018-07-04T09:23:12.232Z,4.47
2018-07-04T09:25:52.619Z,6.30
2018-07-04T09:28:32.868Z,4.30
2018-07-04T09:31:13.322Z,5.67
2018-07-04T09:33:53.855Z,4.97
2018-07-04T09:36:34.278Z,4.33
2018-07-04T09:39:14.588Z,3.57
2018-07-04T09:41:55.023Z,3.57
2018-07-04T09:44:35.481Z,4.83
2018-07-04T09:47:15.841Z,4.70
2018-07-04T09:49:56.366Z,6.27
2018-07-04T09:52:36.760Z,4.53
2018-07-04T09:55:17.106Z,7.07
2018-07-04T09:57:57.532Z,4.90
2018-07-04T10:00:42.222Z,4.27
2018-07-04T10:03:22.770Z,4.40
2018-07-04T10:06:03.271Z,4.27
2018-07-04T10:08:43.734Z,4.93
2018-07-04T10:11:24.204Z,5.17
2018-07-04T10:14:04.836Z,4.77
2018-07-04T10:16:45.192Z,4.90
2018-07-04T10:19:26.040Z,4.67
2018-07-04T10:22:06.510Z,3.33
2018-07-04T10:24:47.151Z,4.30
2018-07-04T10:27:27.791Z,6.67
2018-07-04T10:30:08.093Z,5.77
2018-07-04T10:32:48.422Z,3.97
2018-07-04T10:35:28.789Z,4.77
2018-07-04T10:38:09.313Z,4.23
2018-07-04T10:40:49.657Z,3.17
2018-07-04T10:43:30.632Z,2.27
2018-07-04T10:46:11.000Z,2.67
2018-07-04T10:48:51.389Z,5.63
2018-07-04T10:51:31.853Z,3.37
2018-07-04T10:54:12.182Z,4.70
2018-07-04T10:56:52.603Z,3.37
2018-07-04T10:59:33.154Z,3.60
2018-07-04T11:02:13.662Z,2.97
2018-07-04T11:04:54.193Z,4.17
2018-07-04T11:07:35.116Z,4.27
2018-07-04T11:10:15.517Z,2.87
2018-07-04T11:12:55.822Z,3.40
2018-07-04T11:15:36.362Z,2.87
2018-07-04T11:18:16.774Z,3.03
2018-07-04T11:20:57.165Z,5.80
2018-07-04T11:23:37.521Z,3.13
2018-07-04T11:26:17.992Z,3.20
2018-07-04T11:28:58.456Z,2.90
2018-07-04T11:31:38.778Z,2.47
2018-07-04T11:34:19.164Z,3.63
2018-07-04T11:36:59.417Z,2.10
2018-07-04T11:39:40.116Z,4.83
2018-07-04T11:42:20.539Z,3.47
2018-07-04T11:45:00.821Z,2.83
2018-07-04T11:47:28.810Z,3.03
2018-07-04T11:49:56.831Z,4.07
2018-07-04T11:52:24.877Z,2.47
2018-07-04T11:54:53.023Z,3.17
2018-07-04T11:57:21.024Z,2.67
2018-07-04T11:59:49.756Z,3.43
2018-07-04T12:02:17.801Z,2.67
2018-07-04T12:04:58.140Z,6.47
2018-07-04T12:07:26.120Z,5.00
2018-07-04T12:09:54.158Z,2.20
2018-07-04T12:12:22.161Z,3.90
2018-07-04T12:14:50.138Z,1.97
2018-07-04T12:17:18.181Z,2.70
2018-07-04T12:19:46.287Z,3.97
2018-07-04T12:22:14.269Z,2.20
2018-07-04T12:24:42.265Z,2.13
2018-07-04T12:27:10.228Z,2.83
2018-07-04T12:29:38.288Z,3.80
2018-07-04T12:32:06.349Z,2.03
2018-07-04T12:34:34.311Z,1.93
2018-07-04T12:37:02.276Z,2.27
2018-07-04T12:39:30.256Z,2.73
2018-07-04T12:41:58.265Z,3.10
2018-07-04T12:44:26.254Z,4.20
2018-07-04T12:46:54.417Z,2.63
2018-07-04T12:49:25.366Z,3.10
2018-07-04T12:51:53.699Z,3.17
2018-07-04T12:54:27.548Z,1.67
2018-07-04T12:57:07.839Z,1.87
2018-07-04T12:59:48.222Z,1.70
2018-07-04T13:02:28.540Z,1.90
2018-07-04T13:05:08.921Z,1.50
2018-07-04T13:07:49.317Z,2.27
2018-07-04T13:10:29.978Z,1.90
2018-07-04T13:13:10.180Z,1.53
2018-07-04T13:15:57.889Z,2.00
2018-07-04T13:18:38.519Z,2.27
2018-07-04T13:21:18.863Z,2.50
2018-07-04T13:23:59.203Z,2.03
2018-07-04T13:26:39.667Z,2.70
2018-07-04T13:29:20.164Z,2.30
2018-07-04T13:32:00.704Z,2.83
2018-07-04T13:34:41.131Z,2.03
2018-07-04T13:37:21.474Z,1.43
2018-07-04T13:40:01.976Z,1.90
2018-07-04T13:42:42.398Z,1.60
2018-07-04T13:45:22.907Z,2.37
2018-07-04T13:48:03.354Z,1.77
2018-07-04T13:50:43.862Z,1.73
2018-07-04T13:53:24.234Z,3.40
2018-07-04T13:56:05.259Z,1.67
2018-07-04T13:58:45.950Z,1.70
2018-07-04T14:01:26.500Z,1.60
2018-07-04T14:04:06.897Z,3.33
2018-07-04T14:06:47.135Z,1.87
2018-07-04T14:09:27.605Z,2.73
2018-07-04T14:12:10.726Z,2.23
2018-07-04T14:14:51.142Z,2.07
2018-07-04T14:17:31.578Z,2.30
2018-07-04T14:20:12.159Z,2.37
2018-07-04T14:22:52.558Z,2.93
2018-07-04T14:25:33.097Z,3.03
2018-07-04T14:28:13.690Z,2.00
2018-07-04T14:30:54.066Z,2.00
2018-07-04T14:33:34.417Z,2.13
2018-07-04T14:36:15.180Z,2.23
2018-07-04T14:38:55.614Z,2.07
2018-07-04T14:41:35.924Z,3.30
2018-07-04T14:44:16.377Z,2.87
2018-07-04T14:46:56.831Z,2.43
2018-07-04T14:49:37.225Z,1.90
2018-07-04T14:52:17.665Z,2.67
2018-07-04T14:54:58.050Z,1.90
2018-07-04T14:57:38.437Z,1.67
2018-07-04T15:00:19.505Z,2.40
2018-07-04T15:02:59.795Z,1.80
2018-07-04T15:05:40.063Z,1.70
2018-07-04T15:08:20.388Z,1.40
2018-07-04T15:10:54.754Z,2.20
2018-07-04T15:13:35.072Z,1.63
2018-07-04T15:16:15.264Z,1.90
2018-07-04T15:18:57.163Z,2.13
2018-07-04T15:21:37.507Z,4.20
2018-07-04T15:24:18.000Z,1.70
2018-07-04T15:26:58.302Z,2.00
2018-07-04T15:29:32.584Z,1.53
2018-07-04T15:32:12.819Z,1.60
2018-07-04T15:34:53.202Z,1.50
2018-07-04T15:37:33.821Z,2.67
2018-07-04T15:40:14.325Z,1.50
2018-07-04T15:42:54.754Z,2.93
2018-07-04T15:45:35.277Z,2.03
2018-07-04T15:48:15.638Z,1.90
2018-07-04T15:50:56.272Z,1.63
2018-07-04T15:53:36.632Z,1.90
2018-07-04T15:56:16.861Z,1.90
2018-07-04T15:58:58.120Z,1.90
2018-07-04T16:01:38.491Z,2.20
2018-07-04T16:04:12.862Z,3.07
2018-07-04T16:06:53.311Z,3.50
2018-07-04T16:09:33.702Z,2.33
2018-07-04T16:12:14.347Z,1.50
2018-07-04T16:14:54.841Z,2.07
2018-07-04T16:17:35.391Z,1.80
2018-07-04T16:20:15.824Z,1.70
2018-07-04T16:22:56.447Z,1.70
2018-07-04T16:25:36.807Z,1.57
2018-07-04T16:28:17.267Z,1.60
2018-07-04T16:30:57.529Z,1.60
2018-07-04T16:33:37.932Z,2.00
2018-07-04T16:36:18.223Z,1.70
2018-07-04T16:38:58.722Z,1.50
2018-07-04T16:41:38.971Z,2.20
2018-07-04T16:44:19.508Z,1.77
2018-07-04T16:46:59.872Z,1.97
2018-07-04T16:49:40.200Z,2.00
2018-07-04T16:52:21.231Z,1.90
2018-07-04T16:54:56.151Z,1.77
2018-07-04T16:57:30.540Z,1.97
2018-07-04T17:00:10.838Z,2.10
2018-07-04T17:02:45.079Z,1.80
2018-07-04T17:05:25.771Z,2.40
2018-07-04T17:08:06.156Z,2.10
2018-07-04T17:10:46.748Z,2.23
2018-07-04T17:13:26.995Z,2.20
2018-07-04T17:16:07.391Z,2.10
2018-07-04T17:18:47.773Z,2.00
2018-07-04T17:21:28.088Z,2.37
2018-07-04T17:24:08.382Z,2.43
2018-07-04T17:26:48.664Z,2.50
2018-07-04T17:29:28.948Z,2.50
2018-07-04T17:32:09.231Z,8.47
2018-07-04T17:34:49.662Z,2.83
2018-07-04T17:37:30.046Z,2.37
2018-07-04T17:40:10.358Z,2.67
2018-07-04T17:42:50.891Z,2.63
2018-07-04T17:45:31.379Z,2.33
2018-07-04T17:48:12.260Z,2.97
2018-07-04T17:50:52.598Z,2.53
2018-07-04T17:53:32.997Z,2.93
2018-07-04T17:56:07.382Z,2.50
2018-07-04T17:58:47.617Z,2.60
2018-07-04T18:01:28.082Z,4.00
2018-07-04T18:04:08.516Z,2.70
2018-07-04T18:06:48.990Z,2.80
2018-07-04T18:09:29.199Z,3.10
2018-07-04T18:12:10.580Z,3.03
2018-07-04T18:14:51.764Z,2.70
2018-07-04T18:17:32.035Z,2.50
2018-07-04T18:20:12.449Z,2.73
2018-07-04T18:22:52.801Z,3.07
2018-07-04T18:25:35.200Z,3.87
2018-07-04T18:28:15.575Z,3.13
2018-07-04T18:30:55.892Z,4.47
2018-07-04T18:33:36.332Z,2.93
2018-07-04T18:36:16.720Z,2.90
2018-07-04T18:38:56.990Z,4.03
2018-07-04T18:41:37.458Z,2.93
2018-07-04T18:44:18.182Z,3.20
2018-07-04T18:46:58.481Z,3.30
2018-07-04T18:49:38.730Z,3.13
2018-07-04T18:52:19.126Z,3.07
2018-07-04T18:54:59.668Z,2.90
2018-07-04T18:57:39.988Z,3.63
2018-07-04T19:00:20.220Z,2.90
2018-07-04T19:03:00.531Z,3.50
2018-07-04T19:05:40.850Z,2.90
2018-07-04T19:08:21.235Z,3.50
2018-07-04T19:11:01.614Z,3.17
2018-07-04T19:13:42.016Z,3.30
2018-07-04T19:16:22.402Z,3.23
2018-07-04T19:19:02.700Z,3.77
2018-07-04T19:21:43.165Z,3.33
2018-07-04T19:24:23.604Z,3.53
2018-07-04T19:27:03.917Z,3.43
2018-07-04T19:29:44.196Z,3.60
2018-07-04T19:32:24.586Z,3.60
2018-07-04T19:35:05.357Z,4.10
2018-07-04T19:37:45.917Z,4.30
2018-07-04T19:40:26.098Z,4.23
2018-07-04T19:43:06.481Z,3.37
2018-07-04T19:45:41.080Z,3.50
2018-07-04T19:48:21.488Z,3.37
2018-07-04T19:51:01.813Z,3.93
2018-07-04T19:53:36.230Z,3.77
2018-07-04T19:56:16.448Z,3.40
2018-07-04T19:58:56.688Z,3.00
2018-07-04T20:01:37.134Z,3.00
2018-07-04T20:04:17.388Z,3.37
2018-07-04T20:06:57.641Z,3.70
2018-07-04T20:09:37.895Z,3.93
2018-07-04T20:15:05.017Z,3.87
2018-07-04T20:17:45.457Z,4.00
2018-07-04T20:20:26.020Z,4.20
2018-07-04T20:23:06.311Z,4.53
2018-07-04T20:25:46.789Z,4.27
2018-07-04T20:28:27.148Z,5.20
2018-07-04T20:31:07.561Z,4.53
2018-07-04T20:33:47.894Z,4.80
2018-07-04T20:36:28.191Z,4.17
2018-07-04T20:39:08.730Z,4.20
2018-07-04T20:41:49.696Z,4.20
2018-07-04T20:44:30.240Z,3.63
2018-07-04T20:47:10.578Z,4.43
2018-07-04T20:49:50.841Z,5.13
2018-07-04T20:52:31.144Z,5.33
2018-07-04T20:55:11.650Z,6.53
2018-07-04T20:57:51.926Z,5.70
2018-07-04T21:00:26.361Z,7.10
2018-07-04T21:03:06.635Z,6.53
2018-07-04T21:05:46.995Z,6.37
2018-07-04T21:08:27.426Z,5.80
2018-07-04T21:11:07.755Z,5.40
2018-07-04T21:13:48.092Z,5.27
2018-07-04T21:16:29.277Z,6.07
2018-07-04T21:19:09.604Z,6.10
2018-07-04T21:21:49.925Z,6.17
2018-07-04T21:24:30.476Z,5.97
2018-07-04T21:27:10.826Z,5.40
2018-07-04T21:29:51.403Z,5.80
2018-07-04T21:32:31.636Z,5.70
2018-07-04T21:35:11.917Z,5.07
2018-07-04T21:37:52.172Z,5.57
2018-07-04T21:40:32.567Z,5.40
2018-07-04T21:43:13.034Z,5.10
2018-07-04T21:45:53.611Z,6.57
2018-07-04T21:48:33.991Z,5.63
2018-07-04T21:51:14.376Z,6.00
2018-07-04T21:53:54.812Z,6.40
2018-07-04T21:56:35.303Z,6.63
2018-07-04T21:59:16.284Z,7.13
2018-07-04T22:01:56.681Z,7.97
2018-07-04T22:04:36.940Z,6.63
2018-07-04T22:07:17.208Z,6.47
2018-07-04T22:09:57.648Z,5.43
2018-07-04T22:12:37.912Z,5.40
2018-07-04T22:15:18.417Z,5.50
2018-07-04T22:17:58.879Z,5.50
2018-07-04T22:20:39.304Z,5.47
2018-07-04T22:23:19.628Z,5.50
2018-07-04T22:25:59.942Z,5.50
2018-07-04T22:28:40.426Z,5.37
2018-07-04T22:31:20.799Z,5.47
2018-07-04T22:34:01.070Z,5.93
2018-07-04T22:36:41.594Z,6.10
2018-07-04T22:39:22.050Z,6.00
2018-07-04T22:42:02.472Z,6.70
2018-07-04T22:44:43.077Z,8.00
2018-07-04T22:47:23.447Z,8.90
2018-07-04T22:50:04.354Z,9.00
2018-07-04T22:52:44.925Z,9.97
2018-07-04T22:55:25.339Z,8.73
2018-07-04T22:58:05.837Z,11.57
2018-07-04T23:00:46.339Z,10.33
2018-07-04T23:03:26.981Z,11.33
2018-07-04T23:06:08.222Z,11.37
2018-07-04T23:08:48.607Z,10.80
2018-07-04T23:11:29.136Z,12.27
2018-07-04T23:14:09.612Z,10.93
2018-07-04T23:16:50.030Z,11.23
2018-07-04T23:19:30.728Z,10.40
2018-07-04T23:22:11.180Z,9.43
2018-07-04T23:24:51.553Z,8.93
2018-07-04T23:27:32.184Z,9.80
2018-07-04T23:30:13.260Z,10.93
2018-07-04T23:32:53.588Z,9.57
2018-07-04T23:35:33.988Z,9.80
2018-07-04T23:38:14.371Z,10.20
2018-07-04T23:40:54.723Z,10.50
2018-07-04T23:43:35.066Z,10.57
2018-07-04T23:46:15.474Z,11.97
2018-07-04T23:48:56.021Z,12.70
2018-07-04T23:51:36.378Z,11.70
2018-07-04T23:54:16.709Z,11.50
2018-07-04T23:56:57.038Z,11.40
2018-07-04T23:59:37.392Z,13.17
